sensor_id;sensor_type;location;lat;lon;timestamp;P1;durP1;ratioP1;P2;durP2;ratioP2
56653;SDS011;45096;52.302;4.634;2023-03-04T00:01:59;5.75;;;1.83;;
56653;SDS011;45096;52.302;4.634;2023-03-04T00:04:24;11.75;;;3.30;;
56653;SDS011;45096;52.302;4.634;2023-03-04T00:06:49;4.28;;;1.90;;
56653;SDS011;45096;52.302;4.634;2023-03-04T00:09:15;4.05;;;1.73;;
56653;SDS011;45096;52.302;4.634;2023-03-04T00:11:40;6.18;;;1.92;;
56653;SDS011;45096;52.302;4.634;2023-03-04T00:14:07;10.73;;;3.17;;
56653;SDS011;45096;52.302;4.634;2023-03-04T00:16:32;6.82;;;2.00;;
56653;SDS011;45096;52.302;4.634;2023-03-04T00:18:58;4.72;;;2.25;;
56653;SDS011;45096;52.302;4.634;2023-03-04T00:21:23;3.90;;;1.90;;
56653;SDS011;45096;52.302;4.634;2023-03-04T00:23:53;4.57;;;2.00;;
56653;SDS011;45096;52.302;4.634;2023-03-04T00:26:19;7.47;;;2.28;;
56653;SDS011;45096;52.302;4.634;2023-03-04T00:28:44;5.88;;;2.13;;
56653;SDS011;45096;52.302;4.634;2023-03-04T00:31:11;6.90;;;2.40;;
56653;SDS011;45096;52.302;4.634;2023-03-04T00:33:36;3.10;;;1.52;;
56653;SDS011;45096;52.302;4.634;2023-03-04T00:36:08;3.80;;;1.83;;
56653;SDS011;45096;52.302;4.634;2023-03-04T00:38:34;3.97;;;2.05;;
56653;SDS011;45096;52.302;4.634;2023-03-04T00:40:59;3.63;;;2.17;;
56653;SDS011;45096;52.302;4.634;2023-03-04T00:43:24;7.90;;;2.05;;
56653;SDS011;45096;52.302;4.634;2023-03-04T00:45:50;3.97;;;1.92;;
56653;SDS011;45096;52.302;4.634;2023-03-04T00:48:17;3.92;;;2.58;;
56653;SDS011;45096;52.302;4.634;2023-03-04T00:50:42;7.25;;;2.40;;
56653;SDS011;45096;52.302;4.634;2023-03-04T00:53:08;5.82;;;2.00;;
56653;SDS011;45096;52.302;4.634;2023-03-04T00:55:34;7.35;;;2.40;;
56653;SDS011;45096;52.302;4.634;2023-03-04T00:57:59;2.85;;;1.65;;
56653;SDS011;45096;52.302;4.634;2023-03-04T01:00:28;6.53;;;2.08;;
56653;SDS011;45096;52.302;4.634;2023-03-04T01:02:53;4.38;;;1.95;;
56653;SDS011;45096;52.302;4.634;2023-03-04T01:05:20;4.68;;;1.73;;
56653;SDS011;45096;52.302;4.634;2023-03-04T01:07:45;4.03;;;1.92;;
56653;SDS011;45096;52.302;4.634;2023-03-04T01:10:12;4.32;;;1.73;;
56653;SDS011;45096;52.302;4.634;2023-03-04T01:12:39;2.83;;;1.40;;
56653;SDS011;45096;52.302;4.634;2023-03-04T01:15:04;6.82;;;1.98;;
56653;SDS011;45096;52.302;4.634;2023-03-04T01:17:30;4.72;;;1.98;;
56653;SDS011;45096;52.302;4.634;2023-03-04T01:19:56;8.93;;;2.35;;
56653;SDS011;45096;52.302;4.634;2023-03-04T01:22:23;6.78;;;2.17;;
56653;SDS011;45096;52.302;4.634;2023-03-04T01:24:48;7.93;;;2.45;;
56653;SDS011;45096;52.302;4.634;2023-03-04T01:27:13;5.97;;;2.03;;
56653;SDS011;45096;52.302;4.634;2023-03-04T01:29:39;5.15;;;2.20;;
56653;SDS011;45096;52.302;4.634;2023-03-04T01:32:04;3.25;;;1.60;;
56653;SDS011;45096;52.302;4.634;2023-03-04T01:34:30;3.65;;;1.80;;
56653;SDS011;45096;52.302;4.634;2023-03-04T01:36:55;5.60;;;1.73;;
56653;SDS011;45096;52.302;4.634;2023-03-04T01:39:22;7.22;;;1.90;;
56653;SDS011;45096;52.302;4.634;2023-03-04T01:41:47;1.95;;;1.55;;
56653;SDS011;45096;52.302;4.634;2023-03-04T01:44:13;4.05;;;1.98;;
56653;SDS011;45096;52.302;4.634;2023-03-04T01:46:38;9.52;;;2.22;;
56653;SDS011;45096;52.302;4.634;2023-03-04T01:49:08;4.35;;;1.58;;
56653;SDS011;45096;52.302;4.634;2023-03-04T01:51:34;4.30;;;2.20;;
56653;SDS011;45096;52.302;4.634;2023-03-04T01:53:59;4.63;;;1.50;;
56653;SDS011;45096;52.302;4.634;2023-03-04T01:56:27;9.13;;;2.38;;
56653;SDS011;45096;52.302;4.634;2023-03-04T01:59:07;5.55;;;1.65;;
56653;SDS011;45096;52.302;4.634;2023-03-04T02:01:34;5.55;;;1.67;;
56653;SDS011;45096;52.302;4.634;2023-03-04T02:04:00;2.80;;;1.80;;
56653;SDS011;45096;52.302;4.634;2023-03-04T02:06:26;2.67;;;1.70;;
56653;SDS011;45096;52.302;4.634;2023-03-04T02:08:52;3.83;;;1.58;;
56653;SDS011;45096;52.302;4.634;2023-03-04T02:11:17;3.25;;;1.70;;
56653;SDS011;45096;52.302;4.634;2023-03-04T02:13:44;3.20;;;1.60;;
56653;SDS011;45096;52.302;4.634;2023-03-04T02:16:09;7.72;;;1.98;;
56653;SDS011;45096;52.302;4.634;2023-03-04T02:18:35;2.78;;;1.48;;
56653;SDS011;45096;52.302;4.634;2023-03-04T02:21:02;3.45;;;1.90;;
56653;SDS011;45096;52.302;4.634;2023-03-04T02:23:32;3.00;;;1.50;;
56653;SDS011;45096;52.302;4.634;2023-03-04T02:26:09;3.78;;;1.70;;
56653;SDS011;45096;52.302;4.634;2023-03-04T02:28:38;4.43;;;1.95;;
56653;SDS011;45096;52.302;4.634;2023-03-04T02:31:04;4.03;;;1.30;;
56653;SDS011;45096;52.302;4.634;2023-03-04T02:33:29;3.72;;;1.77;;
56653;SDS011;45096;52.302;4.634;2023-03-04T02:35:55;1.83;;;1.40;;
56653;SDS011;45096;52.302;4.634;2023-03-04T02:38:20;6.53;;;1.83;;
56653;SDS011;45096;52.302;4.634;2023-03-04T02:40:46;7.70;;;2.40;;
56653;SDS011;45096;52.302;4.634;2023-03-04T02:43:15;5.32;;;1.60;;
56653;SDS011;45096;52.302;4.634;2023-03-04T02:45:41;3.83;;;1.95;;
56653;SDS011;45096;52.302;4.634;2023-03-04T02:48:08;4.28;;;1.77;;
56653;SDS011;45096;52.302;4.634;2023-03-04T02:50:35;3.33;;;1.50;;
56653;SDS011;45096;52.302;4.634;2023-03-04T02:53:02;4.63;;;1.65;;
56653;SDS011;45096;52.302;4.634;2023-03-04T02:55:27;4.28;;;1.30;;
56653;SDS011;45096;52.302;4.634;2023-03-04T02:57:53;2.90;;;1.60;;
56653;SDS011;45096;52.302;4.634;2023-03-04T03:00:20;3.47;;;1.92;;
56653;SDS011;45096;52.302;4.634;2023-03-04T03:02:45;2.00;;;1.40;;
56653;SDS011;45096;52.302;4.634;2023-03-04T03:05:11;2.88;;;1.48;;
56653;SDS011;45096;52.302;4.634;2023-03-04T03:07:36;5.47;;;1.80;;
56653;SDS011;45096;52.302;4.634;2023-03-04T03:10:02;2.67;;;1.45;;
56653;SDS011;45096;52.302;4.634;2023-03-04T03:12:28;6.80;;;2.28;;
56653;SDS011;45096;52.302;4.634;2023-03-04T03:14:53;5.00;;;1.30;;
56653;SDS011;45096;52.302;4.634;2023-03-04T03:17:20;8.30;;;1.83;;
56653;SDS011;45096;52.302;4.634;2023-03-04T03:19:45;2.45;;;1.40;;
56653;SDS011;45096;52.302;4.634;2023-03-04T03:22:11;3.70;;;1.70;;
56653;SDS011;45096;52.302;4.634;2023-03-04T03:24:36;8.13;;;1.50;;
56653;SDS011;45096;52.302;4.634;2023-03-04T03:27:02;4.68;;;1.48;;
56653;SDS011;45096;52.302;4.634;2023-03-04T03:29:27;5.55;;;1.20;;
56653;SDS011;45096;52.302;4.634;2023-03-04T03:31:53;6.05;;;2.10;;
56653;SDS011;45096;52.302;4.634;2023-03-04T03:34:19;4.00;;;1.45;;
56653;SDS011;45096;52.302;4.634;2023-03-04T03:36:45;4.20;;;1.50;;
56653;SDS011;45096;52.302;4.634;2023-03-04T03:39:10;3.70;;;1.98;;
56653;SDS011;45096;52.302;4.634;2023-03-04T03:41:36;5.13;;;1.90;;
56653;SDS011;45096;52.302;4.634;2023-03-04T03:44:01;3.85;;;1.25;;
56653;SDS011;45096;52.302;4.634;2023-03-04T03:46:26;3.08;;;1.33;;
56653;SDS011;45096;52.302;4.634;2023-03-04T03:48:52;4.05;;;1.50;;
56653;SDS011;45096;52.302;4.634;2023-03-04T03:51:19;5.68;;;1.98;;
56653;SDS011;45096;52.302;4.634;2023-03-04T03:53:44;5.93;;;1.60;;
56653;SDS011;45096;52.302;4.634;2023-03-04T03:56:09;4.47;;;1.42;;
56653;SDS011;45096;52.302;4.634;2023-03-04T03:58:35;5.22;;;1.77;;
56653;SDS011;45096;52.302;4.634;2023-03-04T04:01:00;5.10;;;1.85;;
56653;SDS011;45096;52.302;4.634;2023-03-04T04:03:25;6.57;;;1.77;;
56653;SDS011;45096;52.302;4.634;2023-03-04T04:05:51;2.88;;;1.48;;
56653;SDS011;45096;52.302;4.634;2023-03-04T04:08:18;3.65;;;1.60;;
56653;SDS011;45096;52.302;4.634;2023-03-04T04:10:43;4.60;;;1.30;;
56653;SDS011;45096;52.302;4.634;2023-03-04T04:13:09;6.32;;;1.55;;
56653;SDS011;45096;52.302;4.634;2023-03-04T04:15:34;4.47;;;1.40;;
56653;SDS011;45096;52.302;4.634;2023-03-04T04:18:00;6.50;;;1.70;;
56653;SDS011;45096;52.302;4.634;2023-03-04T04:20:26;5.93;;;1.65;;
56653;SDS011;45096;52.302;4.634;2023-03-04T04:22:51;5.10;;;1.50;;
56653;SDS011;45096;52.302;4.634;2023-03-04T04:25:18;5.45;;;1.73;;
56653;SDS011;45096;52.302;4.634;2023-03-04T04:27:43;3.92;;;1.80;;
56653;SDS011;45096;52.302;4.634;2023-03-04T04:30:09;5.28;;;1.63;;
56653;SDS011;45096;52.302;4.634;2023-03-04T04:32:35;8.90;;;1.85;;
56653;SDS011;45096;52.302;4.634;2023-03-04T04:35:01;2.97;;;2.03;;
56653;SDS011;45096;52.302;4.634;2023-03-04T04:37:26;4.07;;;1.33;;
56653;SDS011;45096;52.302;4.634;2023-03-04T04:39:52;2.53;;;1.50;;
56653;SDS011;45096;52.302;4.634;2023-03-04T04:42:18;4.95;;;1.50;;
56653;SDS011;45096;52.302;4.634;2023-03-04T04:44:44;5.68;;;1.52;;
56653;SDS011;45096;52.302;4.634;2023-03-04T04:47:09;2.25;;;1.48;;
56653;SDS011;45096;52.302;4.634;2023-03-04T04:49:35;4.20;;;1.17;;
56653;SDS011;45096;52.302;4.634;2023-03-04T04:52:00;4.68;;;1.60;;
56653;SDS011;45096;52.302;4.634;2023-03-04T04:54:26;5.68;;;1.70;;
56653;SDS011;45096;52.302;4.634;2023-03-04T04:56:51;1.30;;;1.10;;
56653;SDS011;45096;52.302;4.634;2023-03-04T04:59:18;3.88;;;1.48;;
56653;SDS011;45096;52.302;4.634;2023-03-04T05:01:44;3.55;;;1.70;;
56653;SDS011;45096;52.302;4.634;2023-03-04T05:04:09;4.03;;;1.73;;
56653;SDS011;45096;52.302;4.634;2023-03-04T05:06:34;1.92;;;1.13;;
56653;SDS011;45096;52.302;4.634;2023-03-04T05:09:00;3.13;;;2.03;;
56653;SDS011;45096;52.302;4.634;2023-03-04T05:11:25;2.60;;;1.30;;
56653;SDS011;45096;52.302;4.634;2023-03-04T05:13:51;2.42;;;1.40;;
56653;SDS011;45096;52.302;4.634;2023-03-04T05:16:17;5.53;;;1.38;;
56653;SDS011;45096;52.302;4.634;2023-03-04T05:18:43;3.15;;;1.20;;
56653;SDS011;45096;52.302;4.634;2023-03-04T05:21:08;3.05;;;1.50;;
56653;SDS011;45096;52.302;4.634;2023-03-04T05:23:35;1.90;;;1.15;;
56653;SDS011;45096;52.302;4.634;2023-03-04T05:26:02;3.63;;;1.90;;
56653;SDS011;45096;52.302;4.634;2023-03-04T05:28:28;2.22;;;1.50;;
56653;SDS011;45096;52.302;4.634;2023-03-04T05:30:54;4.25;;;1.65;;
56653;SDS011;45096;52.302;4.634;2023-03-04T05:33:20;3.72;;;1.38;;
56653;SDS011;45096;52.302;4.634;2023-03-04T05:35:47;3.97;;;1.70;;
56653;SDS011;45096;52.302;4.634;2023-03-04T05:38:13;7.72;;;1.73;;
56653;SDS011;45096;52.302;4.634;2023-03-04T05:40:39;3.47;;;1.25;;
56653;SDS011;45096;52.302;4.634;2023-03-04T05:43:05;4.38;;;1.50;;
56653;SDS011;45096;52.302;4.634;2023-03-04T05:45:31;2.63;;;1.38;;
56653;SDS011;45096;52.302;4.634;2023-03-04T05:47:56;5.40;;;1.50;;
56653;SDS011;45096;52.302;4.634;2023-03-04T05:50:23;3.72;;;1.33;;
56653;SDS011;45096;52.302;4.634;2023-03-04T05:52:49;5.78;;;1.67;;
56653;SDS011;45096;52.302;4.634;2023-03-04T05:55:14;3.50;;;1.88;;
56653;SDS011;45096;52.302;4.634;2023-03-04T05:57:40;4.55;;;1.45;;
56653;SDS011;45096;52.302;4.634;2023-03-04T06:00:06;3.38;;;1.58;;
56653;SDS011;45096;52.302;4.634;2023-03-04T06:02:33;8.52;;;1.83;;
56653;SDS011;45096;52.302;4.634;2023-03-04T06:04:59;4.30;;;1.67;;
56653;SDS011;45096;52.302;4.634;2023-03-04T06:07:26;1.48;;;1.30;;
56653;SDS011;45096;52.302;4.634;2023-03-04T06:09:51;2.08;;;1.33;;
56653;SDS011;45096;52.302;4.634;2023-03-04T06:12:16;2.83;;;1.42;;
56653;SDS011;45096;52.302;4.634;2023-03-04T06:14:42;4.88;;;1.35;;
56653;SDS011;45096;52.302;4.634;2023-03-04T06:17:07;7.10;;;1.10;;
56653;SDS011;45096;52.302;4.634;2023-03-04T06:19:33;3.25;;;1.65;;
56653;SDS011;45096;52.302;4.634;2023-03-04T06:21:58;2.53;;;1.40;;
56653;SDS011;45096;52.302;4.634;2023-03-04T06:24:25;4.22;;;1.48;;
56653;SDS011;45096;52.302;4.634;2023-03-04T06:26:50;4.03;;;1.40;;
56653;SDS011;45096;52.302;4.634;2023-03-04T06:29:16;4.45;;;1.33;;
56653;SDS011;45096;52.302;4.634;2023-03-04T06:31:41;1.77;;;0.95;;
56653;SDS011;45096;52.302;4.634;2023-03-04T06:34:07;1.75;;;1.50;;
56653;SDS011;45096;52.302;4.634;2023-03-04T06:36:32;2.35;;;0.98;;
56653;SDS011;45096;52.302;4.634;2023-03-04T06:38:58;1.33;;;1.23;;
56653;SDS011;45096;52.302;4.634;2023-03-04T06:41:25;4.35;;;1.10;;
56653;SDS011;45096;52.302;4.634;2023-03-04T06:43:52;4.93;;;1.00;;
56653;SDS011;45096;52.302;4.634;2023-03-04T06:46:17;3.60;;;1.20;;
56653;SDS011;45096;52.302;4.634;2023-03-04T06:48:43;2.40;;;1.15;;
56653;SDS011;45096;52.302;4.634;2023-03-04T06:51:09;3.45;;;1.38;;
56653;SDS011;45096;52.302;4.634;2023-03-04T06:53:35;1.42;;;1.23;;
56653;SDS011;45096;52.302;4.634;2023-03-04T06:56:00;9.95;;;4.55;;
56653;SDS011;45096;52.302;4.634;2023-03-04T06:58:27;8.15;;;3.70;;
56653;SDS011;45096;52.302;4.634;2023-03-04T07:00:53;8.55;;;3.90;;
56653;SDS011;45096;52.302;4.634;2023-03-04T07:03:19;7.20;;;4.38;;
56653;SDS011;45096;52.302;4.634;2023-03-04T07:05:45;6.72;;;3.60;;
56653;SDS011;45096;52.302;4.634;2023-03-04T07:08:10;5.32;;;3.33;;
56653;SDS011;45096;52.302;4.634;2023-03-04T07:10:36;6.72;;;3.22;;
56653;SDS011;45096;52.302;4.634;2023-03-04T07:13:01;4.20;;;3.10;;
56653;SDS011;45096;52.302;4.634;2023-03-04T07:15:28;4.70;;;3.15;;
56653;SDS011;45096;52.302;4.634;2023-03-04T07:17:53;3.97;;;2.90;;
56653;SDS011;45096;52.302;4.634;2023-03-04T07:20:19;5.72;;;2.53;;
56653;SDS011;45096;52.302;4.634;2023-03-04T07:22:44;5.72;;;3.03;;
56653;SDS011;45096;52.302;4.634;2023-03-04T07:25:10;8.45;;;3.22;;
56653;SDS011;45096;52.302;4.634;2023-03-04T07:27:35;6.25;;;3.05;;
56653;SDS011;45096;52.302;4.634;2023-03-04T07:30:01;3.05;;;2.40;;
56653;SDS011;45096;52.302;4.634;2023-03-04T07:32:27;2.50;;;2.30;;
56653;SDS011;45096;52.302;4.634;2023-03-04T07:34:53;4.57;;;2.28;;
56653;SDS011;45096;52.302;4.634;2023-03-04T07:37:19;2.97;;;2.17;;
56653;SDS011;45096;52.302;4.634;2023-03-04T07:39:44;2.53;;;2.33;;
56653;SDS011;45096;52.302;4.634;2023-03-04T07:42:09;4.18;;;2.17;;
56653;SDS011;45096;52.302;4.634;2023-03-04T07:44:35;6.05;;;2.53;;
56653;SDS011;45096;52.302;4.634;2023-03-04T07:47:00;5.28;;;2.60;;
56653;SDS011;45096;52.302;4.634;2023-03-04T07:49:27;4.25;;;2.55;;
56653;SDS011;45096;52.302;4.634;2023-03-04T07:51:52;3.47;;;2.05;;
56653;SDS011;45096;52.302;4.634;2023-03-04T07:54:18;3.88;;;2.00;;
56653;SDS011;45096;52.302;4.634;2023-03-04T07:56:46;3.28;;;2.28;;
56653;SDS011;45096;52.302;4.634;2023-03-04T07:59:12;6.03;;;2.42;;
56653;SDS011;45096;52.302;4.634;2023-03-04T08:01:37;3.75;;;2.30;;
56653;SDS011;45096;52.302;4.634;2023-03-04T08:04:03;5.13;;;1.88;;
56653;SDS011;45096;52.302;4.634;2023-03-04T08:06:31;2.50;;;1.90;;
56653;SDS011;45096;52.302;4.634;2023-03-04T08:08:57;2.03;;;1.85;;
56653;SDS011;45096;52.302;4.634;2023-03-04T08:11:24;2.45;;;1.58;;
56653;SDS011;45096;52.302;4.634;2023-03-04T08:13:50;2.58;;;1.80;;
56653;SDS011;45096;52.302;4.634;2023-03-04T08:16:16;3.13;;;1.73;;
56653;SDS011;45096;52.302;4.634;2023-03-04T08:18:42;1.77;;;1.67;;
56653;SDS011;45096;52.302;4.634;2023-03-04T08:21:09;2.33;;;1.60;;
56653;SDS011;45096;52.302;4.634;2023-03-04T08:23:36;3.35;;;1.95;;
56653;SDS011;45096;52.302;4.634;2023-03-04T08:26:04;2.45;;;1.45;;
56653;SDS011;45096;52.302;4.634;2023-03-04T08:28:30;3.10;;;1.42;;
56653;SDS011;45096;52.302;4.634;2023-03-04T08:30:56;2.20;;;1.35;;
56653;SDS011;45096;52.302;4.634;2023-03-04T08:33:21;2.95;;;1.50;;
56653;SDS011;45096;52.302;4.634;2023-03-04T08:35:47;1.73;;;1.63;;
56653;SDS011;45096;52.302;4.634;2023-03-04T08:38:12;2.97;;;1.30;;
56653;SDS011;45096;52.302;4.634;2023-03-04T08:40:39;1.75;;;1.65;;
56653;SDS011;45096;52.302;4.634;2023-03-04T08:43:04;2.33;;;1.33;;
56653;SDS011;45096;52.302;4.634;2023-03-04T08:45:30;1.50;;;1.10;;
56653;SDS011;45096;52.302;4.634;2023-03-04T08:47:55;1.95;;;1.30;;
56653;SDS011;45096;52.302;4.634;2023-03-04T08:50:20;2.30;;;1.30;;
56653;SDS011;45096;52.302;4.634;2023-03-04T08:52:46;2.60;;;1.70;;
56653;SDS011;45096;52.302;4.634;2023-03-04T08:55:11;3.45;;;1.20;;
56653;SDS011;45096;52.302;4.634;2023-03-04T08:57:38;2.42;;;1.63;;
56653;SDS011;45096;52.302;4.634;2023-03-04T09:00:04;1.48;;;1.30;;
56653;SDS011;45096;52.302;4.634;2023-03-04T09:02:30;1.33;;;1.23;;
56653;SDS011;45096;52.302;4.634;2023-03-04T09:04:56;1.52;;;1.42;;
56653;SDS011;45096;52.302;4.634;2023-03-04T09:07:21;1.75;;;1.23;;
56653;SDS011;45096;52.302;4.634;2023-03-04T09:09:47;2.40;;;1.17;;
56653;SDS011;45096;52.302;4.634;2023-03-04T09:12:12;1.50;;;1.08;;
56653;SDS011;45096;52.302;4.634;2023-03-04T09:14:39;3.33;;;1.30;;
56653;SDS011;45096;52.302;4.634;2023-03-04T09:17:04;2.38;;;1.25;;
56653;SDS011;45096;52.302;4.634;2023-03-04T09:19:30;2.38;;;1.00;;
56653;SDS011;45096;52.302;4.634;2023-03-04T09:21:56;1.20;;;1.17;;
56653;SDS011;45096;52.302;4.634;2023-03-04T09:24:21;1.38;;;0.98;;
56653;SDS011;45096;52.302;4.634;2023-03-04T09:26:48;0.98;;;0.82;;
56653;SDS011;45096;52.302;4.634;2023-03-04T09:29:14;1.98;;;0.95;;
56653;SDS011;45096;52.302;4.634;2023-03-04T09:31:41;1.48;;;0.93;;
56653;SDS011;45096;52.302;4.634;2023-03-04T09:34:06;2.30;;;1.33;;
56653;SDS011;45096;52.302;4.634;2023-03-04T09:36:32;1.23;;;1.00;;
56653;SDS011;45096;52.302;4.634;2023-03-04T09:38:58;1.77;;;1.10;;
56653;SDS011;45096;52.302;4.634;2023-03-04T09:41:24;1.27;;;1.23;;
56653;SDS011;45096;52.302;4.634;2023-03-04T09:43:51;3.88;;;1.20;;
56653;SDS011;45096;52.302;4.634;2023-03-04T09:46:21;1.75;;;1.02;;
56653;SDS011;45096;52.302;4.634;2023-03-04T09:48:51;4.65;;;1.02;;
56653;SDS011;45096;52.302;4.634;2023-03-04T09:51:20;2.20;;;1.20;;
56653;SDS011;45096;52.302;4.634;2023-03-04T09:53:48;2.63;;;1.10;;
56653;SDS011;45096;52.302;4.634;2023-03-04T09:56:23;3.15;;;1.00;;
56653;SDS011;45096;52.302;4.634;2023-03-04T09:58:52;3.28;;;1.33;;
56653;SDS011;45096;52.302;4.634;2023-03-04T10:01:23;1.60;;;1.00;;
56653;SDS011;45096;52.302;4.634;2023-03-04T10:03:53;2.53;;;1.10;;
56653;SDS011;45096;52.302;4.634;2023-03-04T10:06:20;1.33;;;1.08;;
56653;SDS011;45096;52.302;4.634;2023-03-04T10:08:49;2.35;;;1.15;;
56653;SDS011;45096;52.302;4.634;2023-03-04T10:11:19;1.95;;;1.00;;
56653;SDS011;45096;52.302;4.634;2023-03-04T10:14:07;2.70;;;0.98;;
56653;SDS011;45096;52.302;4.634;2023-03-04T10:16:41;1.30;;;1.20;;
56653;SDS011;45096;52.302;4.634;2023-03-04T10:19:18;3.65;;;1.15;;
56653;SDS011;45096;52.302;4.634;2023-03-04T10:21:47;3.22;;;1.10;;
56653;SDS011;45096;52.302;4.634;2023-03-04T10:24:14;4.45;;;1.17;;
56653;SDS011;45096;52.302;4.634;2023-03-04T10:26:41;2.60;;;1.02;;
56653;SDS011;45096;52.302;4.634;2023-03-04T10:29:08;2.83;;;1.20;;
56653;SDS011;45096;52.302;4.634;2023-03-04T10:31:38;3.33;;;1.40;;
56653;SDS011;45096;52.302;4.634;2023-03-04T10:34:04;2.92;;;0.90;;
56653;SDS011;45096;52.302;4.634;2023-03-04T10:36:37;5.63;;;1.50;;
56653;SDS011;45096;52.302;4.634;2023-03-04T10:39:08;0.90;;;0.90;;
56653;SDS011;45096;52.302;4.634;2023-03-04T10:41:34;2.38;;;1.10;;
56653;SDS011;45096;52.302;4.634;2023-03-04T10:44:00;4.80;;;1.15;;
56653;SDS011;45096;52.302;4.634;2023-03-04T10:46:26;1.88;;;0.93;;
56653;SDS011;45096;52.302;4.634;2023-03-04T10:48:52;4.35;;;1.23;;
56653;SDS011;45096;52.302;4.634;2023-03-04T10:51:18;1.50;;;1.00;;
56653;SDS011;45096;52.302;4.634;2023-03-04T10:53:46;3.42;;;1.48;;
56653;SDS011;45096;52.302;4.634;2023-03-04T10:56:32;4.63;;;1.25;;
56653;SDS011;45096;52.302;4.634;2023-03-04T11:01:55;2.17;;;1.10;;
56653;SDS011;45096;52.302;4.634;2023-03-04T11:04:21;4.43;;;1.27;;
56653;SDS011;45096;52.302;4.634;2023-03-04T11:06:47;3.80;;;1.02;;
56653;SDS011;45096;52.302;4.634;2023-03-04T11:09:20;2.88;;;1.35;;
56653;SDS011;45096;52.302;4.634;2023-03-04T11:11:48;1.35;;;1.17;;
56653;SDS011;45096;52.302;4.634;2023-03-04T11:14:15;1.70;;;1.20;;
56653;SDS011;45096;52.302;4.634;2023-03-04T11:16:50;1.77;;;1.20;;
56653;SDS011;45096;52.302;4.634;2023-03-04T11:19:16;4.38;;;1.40;;
56653;SDS011;45096;52.302;4.634;2023-03-04T11:21:43;4.82;;;1.55;;
56653;SDS011;45096;52.302;4.634;2023-03-04T11:24:10;3.45;;;1.60;;
56653;SDS011;45096;52.302;4.634;2023-03-04T11:26:40;4.35;;;1.58;;
56653;SDS011;45096;52.302;4.634;2023-03-04T11:29:10;4.63;;;1.90;;
56653;SDS011;45096;52.302;4.634;2023-03-04T11:31:39;4.88;;;1.80;;
56653;SDS011;45096;52.302;4.634;2023-03-04T11:34:07;5.95;;;2.20;;
56653;SDS011;45096;52.302;4.634;2023-03-04T11:36:39;6.90;;;2.30;;
56653;SDS011;45096;52.302;4.634;2023-03-04T11:39:14;3.92;;;1.92;;
56653;SDS011;45096;52.302;4.634;2023-03-04T11:41:45;12.82;;;2.78;;
56653;SDS011;45096;52.302;4.634;2023-03-04T11:44:14;9.60;;;2.40;;
56653;SDS011;45096;52.302;4.634;2023-03-04T11:46:53;4.53;;;1.83;;
56653;SDS011;45096;52.302;4.634;2023-03-04T11:49:29;5.30;;;1.83;;
56653;SDS011;45096;52.302;4.634;2023-03-04T11:52:17;3.65;;;2.05;;
56653;SDS011;45096;52.302;4.634;2023-03-04T11:54:48;4.72;;;1.73;;
56653;SDS011;45096;52.302;4.634;2023-03-04T11:57:29;7.47;;;2.22;;
56653;SDS011;45096;52.302;4.634;2023-03-04T12:00:00;4.82;;;2.33;;
56653;SDS011;45096;52.302;4.634;2023-03-04T12:02:34;6.75;;;2.20;;
56653;SDS011;45096;52.302;4.634;2023-03-04T12:07:52;4.75;;;2.50;;
56653;SDS011;45096;52.302;4.634;2023-03-04T12:10:24;6.00;;;2.25;;
56653;SDS011;45096;52.302;4.634;2023-03-04T12:15:54;3.70;;;1.63;;
56653;SDS011;45096;52.302;4.634;2023-03-04T12:18:32;3.42;;;1.58;;
56653;SDS011;45096;52.302;4.634;2023-03-04T12:21:08;5.78;;;1.70;;
56653;SDS011;45096;52.302;4.634;2023-03-04T12:23:45;5.70;;;1.40;;
56653;SDS011;45096;52.302;4.634;2023-03-04T12:26:29;3.72;;;1.55;;
56653;SDS011;45096;52.302;4.634;2023-03-04T12:29:00;4.60;;;1.77;;
56653;SDS011;45096;52.302;4.634;2023-03-04T12:31:37;5.15;;;1.55;;
56653;SDS011;45096;52.302;4.634;2023-03-04T12:34:18;5.55;;;1.20;;
56653;SDS011;45096;52.302;4.634;2023-03-04T12:36:54;3.70;;;1.77;;
56653;SDS011;45096;52.302;4.634;2023-03-04T12:39:35;4.05;;;1.90;;
56653;SDS011;45096;52.302;4.634;2023-03-04T12:42:06;3.63;;;1.35;;
56653;SDS011;45096;52.302;4.634;2023-03-04T12:44:44;5.70;;;1.90;;
56653;SDS011;45096;52.302;4.634;2023-03-04T12:47:13;5.40;;;1.50;;
56653;SDS011;45096;52.302;4.634;2023-03-04T12:49:46;2.88;;;1.60;;
56653;SDS011;45096;52.302;4.634;2023-03-04T12:52:21;2.60;;;1.48;;
56653;SDS011;45096;52.302;4.634;2023-03-04T12:54:50;5.10;;;1.90;;
56653;SDS011;45096;52.302;4.634;2023-03-04T12:57:17;8.00;;;2.22;;
56653;SDS011;45096;52.302;4.634;2023-03-04T12:59:46;5.20;;;1.55;;
56653;SDS011;45096;52.302;4.634;2023-03-04T13:02:26;2.33;;;1.70;;
56653;SDS011;45096;52.302;4.634;2023-03-04T13:04:58;3.60;;;1.83;;
56653;SDS011;45096;52.302;4.634;2023-03-04T13:07:31;6.38;;;2.08;;
56653;SDS011;45096;52.302;4.634;2023-03-04T13:10:04;9.68;;;2.20;;
56653;SDS011;45096;52.302;4.634;2023-03-04T13:12:44;8.25;;;2.10;;
56653;SDS011;45096;52.302;4.634;2023-03-04T13:15:17;7.68;;;2.38;;
56653;SDS011;45096;52.302;4.634;2023-03-04T13:17:52;2.55;;;2.13;;
56653;SDS011;45096;52.302;4.634;2023-03-04T13:20:20;6.07;;;2.00;;
56653;SDS011;45096;52.302;4.634;2023-03-04T13:22:51;6.97;;;2.15;;
56653;SDS011;45096;52.302;4.634;2023-03-04T13:25:28;2.72;;;1.70;;
56653;SDS011;45096;52.302;4.634;2023-03-04T13:33:56;5.82;;;2.13;;
56653;SDS011;45096;52.302;4.634;2023-03-04T13:36:27;7.13;;;1.50;;
56653;SDS011;45096;52.302;4.634;2023-03-04T13:38:57;8.43;;;2.60;;
56653;SDS011;45096;52.302;4.634;2023-03-04T13:41:25;4.35;;;1.90;;
56653;SDS011;45096;52.302;4.634;2023-03-04T13:43:53;8.10;;;2.00;;
56653;SDS011;45096;52.302;4.634;2023-03-04T13:46:37;8.82;;;1.92;;
56653;SDS011;45096;52.302;4.634;2023-03-04T13:49:05;7.72;;;2.42;;
56653;SDS011;45096;52.302;4.634;2023-03-04T13:51:33;2.67;;;1.77;;
56653;SDS011;45096;52.302;4.634;2023-03-04T13:54:06;6.82;;;2.13;;
56653;SDS011;45096;52.302;4.634;2023-03-04T13:56:38;9.43;;;2.15;;
56653;SDS011;45096;52.302;4.634;2023-03-04T13:59:16;7.45;;;1.92;;
56653;SDS011;45096;52.302;4.634;2023-03-04T14:01:58;8.73;;;2.42;;
56653;SDS011;45096;52.302;4.634;2023-03-04T14:04:26;6.05;;;2.38;;
56653;SDS011;45096;52.302;4.634;2023-03-04T14:06:53;8.13;;;2.75;;
56653;SDS011;45096;52.302;4.634;2023-03-04T14:09:20;5.53;;;2.40;;
56653;SDS011;45096;52.302;4.634;2023-03-04T14:11:46;8.13;;;2.70;;
56653;SDS011;45096;52.302;4.634;2023-03-04T14:14:13;7.75;;;2.28;;
56653;SDS011;45096;52.302;4.634;2023-03-04T14:16:44;5.57;;;2.03;;
56653;SDS011;45096;52.302;4.634;2023-03-04T14:19:14;6.53;;;1.75;;
56653;SDS011;45096;52.302;4.634;2023-03-04T14:21:43;7.82;;;2.25;;
56653;SDS011;45096;52.302;4.634;2023-03-04T14:24:11;8.00;;;2.10;;
56653;SDS011;45096;52.302;4.634;2023-03-04T14:26:37;7.78;;;1.83;;
56653;SDS011;45096;52.302;4.634;2023-03-04T14:29:17;4.82;;;1.70;;
56653;SDS011;45096;52.302;4.634;2023-03-04T14:31:44;3.78;;;1.65;;
56653;SDS011;45096;52.302;4.634;2023-03-04T14:34:13;4.30;;;1.83;;
56653;SDS011;45096;52.302;4.634;2023-03-04T14:36:44;7.32;;;1.63;;
56653;SDS011;45096;52.302;4.634;2023-03-04T14:39:11;4.93;;;1.40;;
56653;SDS011;45096;52.302;4.634;2023-03-04T14:41:39;5.28;;;1.65;;
56653;SDS011;45096;52.302;4.634;2023-03-04T14:44:07;3.42;;;1.58;;
56653;SDS011;45096;52.302;4.634;2023-03-04T14:46:36;3.97;;;1.42;;
56653;SDS011;45096;52.302;4.634;2023-03-04T14:49:03;1.90;;;1.23;;
56653;SDS011;45096;52.302;4.634;2023-03-04T14:51:31;1.48;;;1.38;;
56653;SDS011;45096;52.302;4.634;2023-03-04T14:54:01;5.30;;;1.55;;
56653;SDS011;45096;52.302;4.634;2023-03-04T14:56:26;4.47;;;1.20;;
56653;SDS011;45096;52.302;4.634;2023-03-04T14:58:53;2.65;;;1.40;;
56653;SDS011;45096;52.302;4.634;2023-03-04T15:01:21;5.38;;;1.50;;
56653;SDS011;45096;52.302;4.634;2023-03-04T15:03:51;3.20;;;1.40;;
56653;SDS011;45096;52.302;4.634;2023-03-04T15:06:19;2.08;;;1.23;;